createdAt,value
2023-01-04T00:00:05.787Z,102077.91
2023-01-04T00:03:08.200Z,102061.66
2023-01-04T00:06:15.665Z,102052.22
2023-01-04T00:09:17.075Z,102059.06
2023-01-04T00:12:18.432Z,102055.66
2023-01-04T00:15:19.917Z,102047.91
2023-01-04T00:18:21.282Z,102053.06
2023-01-04T00:21:24.993Z,102035.03
2023-01-04T00:24:26.374Z,102043.63
2023-01-04T00:27:27.820Z,102027.47
2023-01-04T00:30:29.202Z,102011.25
2023-01-04T00:33:30.888Z,102006.13
2023-01-04T00:36:33.343Z,102013.78
2023-01-04T00:39:34.715Z,101986.44
2023-01-04T00:42:36.073Z,101988.16
2023-01-04T00:45:37.416Z,101998.44
2023-01-04T00:48:40.460Z,101972.78
2023-01-04T00:51:42.111Z,101974.56
2023-01-04T00:54:43.444Z,101965.06
2023-01-04T00:57:44.811Z,101959.03
2023-01-04T01:00:46.171Z,101950.59
2023-01-04T01:03:47.631Z,101935.22
2023-01-04T01:06:49.444Z,101929.16
2023-01-04T01:09:50.773Z,101925.78
2023-01-04T01:12:52.118Z,101905.25
2023-01-04T01:15:53.608Z,101905.28
2023-01-04T01:18:55.208Z,101901.94
2023-01-04T01:21:57.618Z,101891.63
2023-01-04T01:24:59.127Z,101886.50
2023-01-04T01:28:00.459Z,101871.13
2023-01-04T01:31:10.176Z,101871.13
2023-01-04T01:34:11.705Z,101866.88
2023-01-04T01:37:13.061Z,101853.22
2023-01-04T01:40:14.627Z,101840.44
2023-01-04T01:43:21.502Z,101837.81
2023-01-04T01:46:39.716Z,101821.50
2023-01-04T01:49:43.387Z,101828.22
2023-01-04T01:52:44.892Z,101813.72
2023-01-04T01:55:49.179Z,101799.09
2023-01-04T01:58:54.006Z,101791.31
2023-01-04T02:01:55.525Z,101775.94
2023-01-04T02:04:59.620Z,101773.31
2023-01-04T02:08:02.823Z,101768.97
2023-01-04T02:11:04.860Z,101761.28
2023-01-04T02:14:08.485Z,101766.34
2023-01-04T02:17:39.035Z,101756.91
2023-01-04T02:20:50.460Z,101756.75
2023-01-04T02:24:12.080Z,101741.31
2023-01-04T02:27:32.148Z,101728.41
2023-01-04T02:30:54.476Z,101722.47
2023-01-04T02:34:01.377Z,101713.91
2023-01-04T02:37:18.928Z,101706.94
2023-01-04T02:40:27.235Z,101695.78
2023-01-04T02:43:40.463Z,101674.44
2023-01-04T02:46:51.517Z,101681.28
2023-01-04T02:49:52.958Z,101658.22
2023-01-04T02:52:54.373Z,101652.25
2023-01-04T02:56:24.611Z,101630.00
2023-01-04T03:00:03.675Z,101636.03
2023-01-04T03:03:08.010Z,101633.38
2023-01-04T03:06:17.998Z,101619.72
2023-01-04T03:09:23.237Z,101603.53
2023-01-04T03:12:27.271Z,101596.72
2023-01-04T03:15:33.780Z,101584.78
2023-01-04T03:18:40.851Z,101561.72
2023-01-04T03:21:45.947Z,101551.50
2023-01-04T03:24:47.570Z,101549.88
2023-01-04T03:27:51.883Z,101550.78
2023-01-04T03:31:01.524Z,101537.13
2023-01-04T03:34:03.248Z,101526.06
2023-01-04T03:37:07.231Z,101515.81
2023-01-04T03:40:22.357Z,101515.09
2023-01-04T03:43:34.221Z,101518.56
2023-01-04T03:46:45.506Z,101505.78
2023-01-04T03:49:52.633Z,101505.88
2023-01-04T03:52:56.704Z,101494.81
2023-01-04T03:55:58.753Z,101483.78
2023-01-04T03:59:00.453Z,101473.53
2023-01-04T04:02:02.707Z,101470.97
2023-01-04T04:05:04.614Z,101456.56
2023-01-04T04:08:06.353Z,101448.03
2023-01-04T04:11:07.694Z,101448.03
2023-01-04T04:14:09.061Z,101450.63
2023-01-04T04:17:10.407Z,101436.97
2023-01-04T04:20:12.372Z,101425.81
2023-01-04T04:23:13.715Z,101413.81
2023-01-04T04:26:15.363Z,101405.31
2023-01-04T04:29:17.027Z,101394.19
2023-01-04T04:32:18.391Z,101385.66
2023-01-04T04:35:19.745Z,101376.28
2023-01-04T04:38:22.032Z,101368.59
2023-01-04T04:41:23.426Z,101365.16
2023-01-04T04:44:24.766Z,101337.00
2023-01-04T04:47:26.111Z,101341.19
2023-01-04T04:50:27.739Z,101337.75
2023-01-04T04:53:29.082Z,101352.22
2023-01-04T04:56:30.411Z,101330.00
2023-01-04T04:59:31.876Z,101325.69
2023-01-04T05:02:33.387Z,101333.34
2023-01-04T05:05:34.839Z,101317.00
2023-01-04T05:08:36.285Z,101303.22
2023-01-04T05:11:37.619Z,101299.72
2023-01-04T05:14:38.957Z,101284.97
2023-01-04T05:17:40.324Z,101286.47
2023-01-04T05:20:42.405Z,101282.13
2023-01-04T05:23:43.741Z,101278.53
2023-01-04T05:26:45.105Z,101262.25
2023-01-04T05:29:46.452Z,101270.81
2023-01-04T05:32:47.817Z,101258.72
2023-01-04T05:35:50.476Z,101253.50
2023-01-04T05:38:51.832Z,101238.91
2023-01-04T05:41:53.178Z,101240.50
2023-01-04T05:44:58.809Z,101227.47
2023-01-04T05:48:00.168Z,101205.91
2023-01-04T05:51:01.510Z,101211.78
2023-01-04T05:54:02.856Z,101185.94
2023-01-04T05:57:04.818Z,101193.50
2023-01-04T06:00:08.433Z,101190.03
2023-01-04T06:03:15.694Z,101190.78
2023-01-04T06:06:17.143Z,101183.91
2023-01-04T06:09:18.527Z,101184.66
2023-01-04T06:12:20.119Z,101166.53
2023-01-04T06:15:21.459Z,101163.03
2023-01-04T06:18:22.882Z,101171.47
2023-01-04T06:21:24.243Z,101167.91
2023-01-04T06:24:25.662Z,101143.09
2023-01-04T06:27:27.829Z,101144.72
2023-01-04T06:30:29.309Z,101136.75
2023-01-04T06:33:30.939Z,101141.06
2023-01-04T06:36:32.332Z,101137.63
2023-01-04T06:39:33.711Z,101139.19
2023-01-04T06:42:35.068Z,101121.22
2023-01-04T06:45:36.467Z,101113.34
2023-01-04T06:48:37.840Z,101120.16
2023-01-04T06:51:39.173Z,101109.78
2023-01-04T06:54:40.508Z,101106.34
2023-01-04T06:57:41.897Z,101097.63
2023-01-04T07:00:43.405Z,101091.56
2023-01-04T07:03:44.736Z,101087.13
2023-01-04T07:06:46.090Z,101087.91
2023-01-04T07:09:47.415Z,101074.09
2023-01-04T07:12:48.756Z,101075.66
2023-01-04T07:15:50.176Z,101078.81
2023-01-04T07:18:51.535Z,101071.00
2023-01-04T07:21:52.874Z,101068.38
2023-01-04T07:24:54.239Z,101074.03
2023-01-04T07:27:55.582Z,101059.38
2023-01-04T07:30:57.013Z,101053.28
2023-01-04T07:33:58.381Z,101050.53
2023-01-04T07:36:59.723Z,101045.88
2023-01-04T07:40:01.127Z,101038.16
2023-01-04T07:43:02.484Z,101044.03
2023-01-04T07:46:03.882Z,101041.34
2023-01-04T07:49:09.015Z,101043.75
2023-01-04T07:52:12.980Z,101032.47
2023-01-04T07:55:14.371Z,101034.78
2023-01-04T07:58:15.781Z,101044.19
2023-01-04T08:01:19.169Z,101041.44
2023-01-04T08:04:23.512Z,101042.16
2023-01-04T08:07:24.967Z,101033.47
2023-01-04T08:10:26.727Z,101027.41
2023-01-04T08:13:28.248Z,101033.34
2023-01-04T08:16:32.417Z,101041.81
2023-01-04T08:19:33.828Z,101031.13
2023-01-04T08:22:35.236Z,101043.16
2023-01-04T08:25:36.662Z,101025.75
2023-01-04T08:28:38.541Z,101031.66
2023-01-04T08:31:40.918Z,101028.84
2023-01-04T08:34:42.374Z,101030.50
2023-01-04T08:37:43.737Z,101033.66
2023-01-04T08:40:58.090Z,101024.09
2023-01-04T08:44:03.185Z,101024.63
2023-01-04T08:47:04.762Z,101021.84
2023-01-04T08:50:10.272Z,101024.13
2023-01-04T08:53:12.470Z,101015.34
2023-01-04T08:56:13.800Z,101016.91
2023-01-04T08:59:15.193Z,100995.38
2023-01-04T09:02:23.168Z,100995.94
2023-01-04T09:05:24.834Z,101002.72
2023-01-04T09:08:26.238Z,100993.19
2023-01-04T09:11:27.686Z,100994.03
2023-01-04T09:14:29.090Z,100994.75
2023-01-04T09:17:30.590Z,100995.09
2023-01-04T09:20:31.994Z,100990.25
2023-01-04T09:23:33.365Z,100986.44
2023-01-04T09:26:34.759Z,100994.81
2023-01-04T09:29:36.187Z,100986.09
2023-01-04T09:32:37.543Z,100982.41
2023-01-04T09:35:38.903Z,100974.66
2023-01-04T09:38:40.306Z,100985.63
2023-01-04T09:41:52.474Z,100976.28
2023-01-04T09:45:27.570Z,100968.63
2023-01-04T09:48:26.071Z,100948.00
2023-01-04T09:51:34.697Z,100961.56
2023-01-04T09:55:00.626Z,100959.75
2023-01-04T09:58:17.242Z,100959.75
2023-01-04T10:01:24.157Z,100963.00
2023-01-04T10:04:39.675Z,100957.81
2023-01-04T10:07:41.047Z,100953.41
2023-01-04T10:10:51.346Z,100958.47
2023-01-04T10:14:04.324Z,100949.63
2023-01-04T10:17:44.450Z,100946.91
2023-01-04T10:21:28.236Z,100941.59
2023-01-04T10:24:42.312Z,100931.13
2023-01-04T10:27:48.622Z,100939.69
2023-01-04T10:31:39.830Z,100931.88
2023-01-04T10:34:35.203Z,100933.66
2023-01-04T10:37:37.379Z,100930.84
2023-01-04T10:40:40.685Z,100920.38
2023-01-04T10:44:11.399Z,100929.94
2023-01-04T10:47:11.275Z,100918.63
2023-01-04T10:50:50.302Z,100913.31
2023-01-04T10:54:03.319Z,100909.00
2023-01-04T10:57:07.365Z,100902.88
2023-01-04T11:00:18.343Z,100908.78
2023-01-04T11:03:28.257Z,100912.19
2023-01-04T11:06:55.459Z,100906.97
2023-01-04T11:10:09.498Z,100905.97
2023-01-04T11:13:11.402Z,100904.91
2023-01-04T11:16:13.317Z,100896.19
2023-01-04T11:19:15.237Z,100897.94
2023-01-04T11:22:29.418Z,100889.34
2023-01-04T11:25:39.447Z,100889.28
2023-01-04T11:28:55.480Z,100886.47
2023-01-04T11:32:00.196Z,100881.16
2023-01-04T11:35:01.745Z,100888.97
2023-01-04T11:38:12.168Z,100879.72
2023-01-04T11:41:16.713Z,100877.13
2023-01-04T11:44:18.906Z,100874.47
2023-01-04T11:47:23.380Z,100868.41
2023-01-04T11:50:43.587Z,100873.56
2023-01-04T11:53:45.544Z,100871.00
2023-01-04T11:57:17.236Z,100867.63
2023-01-04T12:00:19.023Z,100862.34
2023-01-04T12:03:33.658Z,100864.00
2023-01-04T12:06:44.870Z,100873.41
2023-01-04T12:09:46.218Z,100861.28
2023-01-04T12:12:47.872Z,100851.63
2023-01-04T12:16:10.568Z,100846.38
2023-01-04T12:19:16.829Z,100841.81
2023-01-04T12:22:28.732Z,100839.06
2023-01-04T12:25:41.603Z,100835.75
2023-01-04T12:28:51.816Z,100838.31
2023-01-04T12:32:13.092Z,100849.47
2023-01-04T12:35:59.663Z,100835.91
2023-01-04T12:39:04.485Z,100851.25
2023-01-04T12:42:12.397Z,100849.47
2023-01-04T12:45:16.360Z,100843.31
2023-01-04T12:48:29.876Z,100846.69
2023-01-04T12:51:32.707Z,100847.59
2023-01-04T12:54:55.113Z,100831.69
2023-01-04T12:57:56.970Z,100834.94
2023-01-04T13:00:58.292Z,100833.09
2023-01-04T13:04:05.999Z,100821.97
2023-01-04T13:07:18.005Z,100834.69
2023-01-04T13:10:36.069Z,100818.38
2023-01-04T13:13:55.250Z,100816.63
2023-01-04T13:17:13.113Z,100811.47
2023-01-04T13:20:23.391Z,100807.16
2023-01-04T13:23:26.878Z,100797.66
2023-01-04T13:26:31.276Z,100795.88
2023-01-04T13:29:35.075Z,100796.56
2023-01-04T13:32:59.437Z,100787.06
2023-01-04T13:36:03.605Z,100802.63
2023-01-04T13:39:07.845Z,100788.81
2023-01-04T13:42:22.124Z,100778.31
2023-01-04T13:45:42.966Z,100777.31
2023-01-04T13:48:46.560Z,100763.59
2023-01-04T13:51:47.928Z,100777.16
2023-01-04T13:54:49.532Z,100770.34
2023-01-04T13:57:56.377Z,100766.09
2023-01-04T14:01:16.554Z,100756.00
2023-01-04T14:04:30.646Z,100760.41
2023-01-04T14:07:32.003Z,100761.41
2023-01-04T14:10:33.385Z,100749.50
2023-01-04T14:13:34.807Z,100741.66
2023-01-04T14:16:36.366Z,100740.16
2023-01-04T14:19:56.118Z,100723.75
2023-01-04T14:22:59.230Z,100733.00
2023-01-04T14:26:00.663Z,100723.53
2023-01-04T14:29:22.609Z,100734.84
2023-01-04T14:32:25.560Z,100739.34
2023-01-04T14:35:28.009Z,100733.31
2023-01-04T14:38:29.990Z,100724.31
2023-01-04T14:41:32.784Z,100724.50
2023-01-04T14:44:34.124Z,100724.66
2023-01-04T14:47:35.480Z,100731.50
2023-01-04T14:50:36.842Z,100722.75
2023-01-04T14:53:38.224Z,100720.25
2023-01-04T14:56:40.855Z,100710.94
2023-01-04T14:59:42.231Z,100716.25
2023-01-04T15:02:43.808Z,100706.25
2023-01-04T15:05:46.309Z,100709.81
2023-01-04T15:08:47.747Z,100703.94
2023-01-04T15:11:49.208Z,100693.44
2023-01-04T15:14:50.555Z,100709.47
2023-01-04T15:17:52.012Z,100698.16
2023-01-04T15:20:53.415Z,100697.19
2023-01-04T15:23:54.854Z,100693.84
2023-01-04T15:26:56.207Z,100698.25
2023-01-04T15:29:57.581Z,100705.69
2023-01-04T15:32:59.040Z,100699.53
2023-01-04T15:36:07.141Z,100702.94
2023-01-04T15:39:12.923Z,100694.94
2023-01-04T15:42:14.310Z,100694.03
2023-01-04T15:45:15.779Z,100704.09
2023-01-04T15:48:17.336Z,100697.28
2023-01-04T15:51:18.693Z,100698.19
2023-01-04T15:54:20.087Z,100690.78
2023-01-04T15:57:21.459Z,100672.78
2023-01-04T16:00:22.872Z,100668.53
2023-01-04T16:03:24.306Z,100673.78
2023-01-04T16:06:25.742Z,100680.63
2023-01-04T16:09:27.221Z,100675.38
2023-01-04T16:12:28.584Z,100692.44
2023-01-04T16:15:30.034Z,100693.28
2023-01-04T16:18:32.769Z,100695.75
2023-01-04T16:21:34.318Z,100686.53
2023-01-04T16:27:57.032Z,100684.94
2023-01-04T16:30:58.560Z,100690.34
2023-01-04T16:33:59.996Z,100689.84
2023-01-04T16:37:01.463Z,100688.19
2023-01-04T16:40:07.599Z,100685.78
2023-01-04T16:43:09.768Z,100692.16
2023-01-04T16:46:28.032Z,100702.97
2023-01-04T16:49:29.788Z,100693.22
2023-01-04T16:52:31.237Z,100703.72
2023-01-04T16:55:33.612Z,100700.16
2023-01-04T16:58:35.664Z,100694.38
2023-01-04T17:01:43.637Z,100681.50
2023-01-04T17:04:50.409Z,100689.22
2023-01-04T17:07:51.777Z,100698.00
2023-01-04T17:10:53.208Z,100697.91
2023-01-04T17:13:55.544Z,100711.78
2023-01-04T17:16:58.180Z,100707.53
2023-01-04T17:19:59.549Z,100689.66
2023-01-04T17:23:00.939Z,100701.78
2023-01-04T17:26:08.929Z,100695.78
2023-01-04T17:29:11.433Z,100697.56
2023-01-04T17:32:12.806Z,100674.47
2023-01-04T17:35:14.307Z,100693.47
2023-01-04T17:38:15.656Z,100695.63
2023-01-04T17:41:18.322Z,100677.56
2023-01-04T17:44:19.666Z,100692.81
2023-01-04T17:47:21.022Z,100678.00
2023-01-04T17:50:22.460Z,100693.22
2023-01-04T17:53:23.775Z,100692.50
2023-01-04T17:56:26.420Z,100695.50
2023-01-04T17:59:27.811Z,100689.81
2023-01-04T18:02:29.196Z,100678.50
2023-01-04T18:05:39.433Z,100680.75
2023-01-04T18:08:51.894Z,100690.00
2023-01-04T18:11:53.259Z,100684.84
2023-01-04T18:14:54.655Z,100686.78
2023-01-04T18:17:56.017Z,100692.41
2023-01-04T18:20:59.796Z,100691.81
2023-01-04T18:27:25.943Z,100681.13
2023-01-04T18:30:27.948Z,100682.97
2023-01-04T18:33:29.291Z,100671.66
2023-01-04T18:36:32.614Z,100666.34
2023-01-04T18:39:35.588Z,100651.69
2023-01-04T18:42:37.028Z,100659.41
2023-01-04T18:45:41.903Z,100667.06
2023-01-04T18:48:43.293Z,100661.00
2023-01-04T18:51:44.633Z,100658.13
2023-01-04T18:54:46.040Z,100664.19
2023-01-04T18:57:47.411Z,100669.44
2023-01-04T19:00:48.774Z,100669.53
2023-01-04T19:03:50.257Z,100665.53
2023-01-04T19:06:51.673Z,100660.06
2023-01-04T19:09:53.168Z,100657.81
2023-01-04T19:12:54.522Z,100668.38
2023-01-04T19:15:56.018Z,100659.13
2023-01-04T19:19:00.660Z,100668.53
2023-01-04T19:22:02.265Z,100664.94
2023-01-04T19:25:03.968Z,100649.47
2023-01-04T19:28:05.971Z,100655.50
2023-01-04T19:31:09.390Z,100651.84
2023-01-04T19:34:10.766Z,100660.25
2023-01-04T19:37:12.147Z,100643.34
2023-01-04T19:40:13.553Z,100644.69
2023-01-04T19:43:14.910Z,100641.19
2023-01-04T19:46:16.956Z,100645.53
2023-01-04T19:49:18.439Z,100639.22
2023-01-04T19:52:19.938Z,100646.25
2023-01-04T19:55:21.294Z,100643.09
2023-01-04T19:58:22.654Z,100651.75
2023-01-04T20:01:24.104Z,100658.38
2023-01-04T20:04:25.563Z,100668.31
2023-01-04T20:07:28.463Z,100676.38
2023-01-04T20:10:29.899Z,100677.59
2023-01-04T20:13:32.565Z,100685.41
2023-01-04T20:16:34.019Z,100692.75
2023-01-04T20:19:35.457Z,100674.78
2023-01-04T20:22:36.792Z,100678.34
2023-01-04T20:25:43.912Z,100672.22
2023-01-04T20:28:45.313Z,100667.31
2023-01-04T20:31:46.680Z,100675.22
2023-01-04T20:34:48.073Z,100677.94
2023-01-04T20:37:49.426Z,100670.59
2023-01-04T20:40:50.820Z,100664.59
2023-01-04T20:43:52.683Z,100668.94
2023-01-04T20:46:54.073Z,100667.94
2023-01-04T20:49:55.454Z,100671.09
2023-01-04T20:52:56.798Z,100667.78
2023-01-04T20:56:04.668Z,100674.38
2023-01-04T20:59:06.027Z,100674.25
2023-01-04T21:02:10.684Z,100682.69
2023-01-04T21:05:12.260Z,100673.13
2023-01-04T21:08:13.805Z,100678.19
2023-01-04T21:11:15.426Z,100665.19
2023-01-04T21:14:16.794Z,100684.78
2023-01-04T21:17:18.184Z,100677.91
2023-01-04T21:20:19.543Z,100687.16
2023-01-04T21:23:23.839Z,100696.59
2023-01-04T21:26:25.368Z,100690.47
2023-01-04T21:29:27.080Z,100694.81
2023-01-04T21:32:28.436Z,100684.66
2023-01-04T21:35:29.876Z,100693.38
2023-01-04T21:38:31.209Z,100683.66
2023-01-04T21:41:32.615Z,100674.00
2023-01-04T21:44:34.167Z,100671.44
2023-01-04T21:47:35.522Z,100674.09
2023-01-04T21:50:37.325Z,100667.13
2023-01-04T21:53:39.665Z,100663.53
2023-01-04T21:56:41.024Z,100672.06
2023-01-04T21:59:42.366Z,100680.69
2023-01-04T22:02:43.831Z,100684.69
2023-01-04T22:05:45.217Z,100680.53
2023-01-04T22:08:46.723Z,100681.38
2023-01-04T22:11:48.103Z,100684.69
2023-01-04T22:14:49.504Z,100680.53
2023-01-04T22:17:50.874Z,100694.84
2023-01-04T22:21:04.923Z,100685.47
2023-01-04T22:24:07.584Z,100704.25
2023-01-04T22:27:08.999Z,100693.94
2023-01-04T22:30:10.878Z,100699.09
2023-01-04T22:33:12.240Z,100699.03
2023-01-04T22:36:22.302Z,100713.59
2023-01-04T22:39:24.504Z,100714.66
2023-01-04T22:42:25.866Z,100717.22
2023-01-04T22:45:27.246Z,100722.22
2023-01-04T22:48:28.828Z,100719.72
2023-01-04T22:51:31.480Z,100723.09
2023-01-04T22:54:32.887Z,100720.63
2023-01-04T22:57:34.288Z,100719.81
2023-01-04T23:00:35.655Z,100734.38
2023-01-04T23:03:40.036Z,100722.31
2023-01-04T23:06:41.475Z,100736.88
2023-01-04T23:09:42.920Z,100741.94
2023-01-04T23:12:44.495Z,100733.31
2023-01-04T23:15:45.821Z,100733.31
2023-01-04T23:18:47.248Z,100742.94
2023-01-04T23:21:48.626Z,100734.53
2023-01-04T23:24:50.041Z,100742.34
2023-01-04T23:27:51.560Z,100744.78
2023-01-04T23:30:53.025Z,100752.78
2023-01-04T23:33:57.122Z,100746.81
2023-01-04T23:36:58.455Z,100754.84
2023-01-04T23:39:59.790Z,100759.53
2023-01-04T23:43:01.156Z,100760.19
2023-01-04T23:46:13.504Z,100765.63
2023-01-04T23:49:15.004Z,100775.47
2023-01-04T23:52:16.341Z,100776.66
2023-01-04T23:55:17.700Z,100774.28
2023-01-04T23:58:19.055Z,100779.81
